Decoded Metar for KCDR (CHADRON in NE, USA) (IATA:CDR) | Meteo·Mobile Aviation Weather
aviador You're here:

KCDR Decoded Metar

CHADRON in NE, USA
Report Time2019-02-20 18:53:00
UTC Time2019-02-20 19:26:58
Flight Rules vfr VFR
Wind310° at 16 kt
W.Decomp.*RWY 29: 15.8 kt HW 2.5 kt RCW
RWY 02: 2.5 kt HW 15.8 kt LCW
W.Rank310° ranks 15
Current wind is above 310° avg. (11.3)
Visibility9999 m
Phenomena:N/A
Clouds:N/A
Expected CloudBase > 4,000 ft AGL from Temp-Dew spread
CeilingNone
Temp-4°C (ISA -12)
Dew Point-14°C (46% RH)
AAT-13.1°C
QNH1003 hPa
Density Alt2,178 ft
Elevation3,314 ft
Report Wrong Elevation
Raw Report
KCDR 201853Z AUTO 31016KT 10SM CLR M04/M14 A2961 RMK AO2 SLP081
T10391139=

Extra information for KCDR:More info

Metar Taf Metar & Taf Last 4 Metars F.Rules Stats Wind Profile Meteogram Temp Stats Airport Information Weather charts Add Link Nearby VenuesMetar ALERT Operation Metar Decoded Social comments

AIRNAV info for KCDR